sensor_id;sensor_type;location;lat;lon;timestamp;P1;durP1;ratioP1;P2;durP2;ratioP2
39094;SDS011;24840;47.508;19.376;2022-12-11T00:01:40;3.67;;;2.30;;
39094;SDS011;24840;47.508;19.376;2022-12-11T00:04:06;3.87;;;2.63;;
39094;SDS011;24840;47.508;19.376;2022-12-11T00:06:32;3.97;;;3.00;;
39094;SDS011;24840;47.508;19.376;2022-12-11T00:08:58;3.40;;;2.40;;
39094;SDS011;24840;47.508;19.376;2022-12-11T00:11:23;5.17;;;3.37;;
39094;SDS011;24840;47.508;19.376;2022-12-11T00:13:49;3.13;;;2.40;;
39094;SDS011;24840;47.508;19.376;2022-12-11T00:16:15;4.60;;;2.70;;
39094;SDS011;24840;47.508;19.376;2022-12-11T00:18:41;4.47;;;2.93;;
39094;SDS011;24840;47.508;19.376;2022-12-11T00:21:07;4.90;;;2.50;;
39094;SDS011;24840;47.508;19.376;2022-12-11T00:23:36;5.77;;;3.53;;
39094;SDS011;24840;47.508;19.376;2022-12-11T00:26:06;4.90;;;3.57;;
39094;SDS011;24840;47.508;19.376;2022-12-11T00:28:33;9.03;;;4.13;;
39094;SDS011;24840;47.508;19.376;2022-12-11T00:31:02;7.37;;;3.87;;
39094;SDS011;24840;47.508;19.376;2022-12-11T00:33:29;5.27;;;4.07;;
39094;SDS011;24840;47.508;19.376;2022-12-11T00:35:55;6.60;;;4.00;;
39094;SDS011;24840;47.508;19.376;2022-12-11T00:38:21;6.57;;;4.47;;
39094;SDS011;24840;47.508;19.376;2022-12-11T00:40:48;7.47;;;4.80;;
39094;SDS011;24840;47.508;19.376;2022-12-11T00:43:14;6.20;;;4.73;;
39094;SDS011;24840;47.508;19.376;2022-12-11T00:45:44;9.10;;;6.43;;
39094;SDS011;24840;47.508;19.376;2022-12-11T00:48:11;10.80;;;7.10;;
39094;SDS011;24840;47.508;19.376;2022-12-11T00:50:38;6.73;;;5.47;;
39094;SDS011;24840;47.508;19.376;2022-12-11T00:53:04;7.90;;;5.13;;
39094;SDS011;24840;47.508;19.376;2022-12-11T00:55:31;7.47;;;5.77;;
39094;SDS011;24840;47.508;19.376;2022-12-11T00:58:02;8.67;;;6.43;;
39094;SDS011;24840;47.508;19.376;2022-12-11T01:00:28;8.07;;;5.97;;
39094;SDS011;24840;47.508;19.376;2022-12-11T01:02:54;9.40;;;5.93;;
39094;SDS011;24840;47.508;19.376;2022-12-11T01:05:19;9.10;;;6.03;;
39094;SDS011;24840;47.508;19.376;2022-12-11T01:07:45;7.53;;;5.43;;
39094;SDS011;24840;47.508;19.376;2022-12-11T01:10:11;9.03;;;6.10;;
39094;SDS011;24840;47.508;19.376;2022-12-11T01:15:15;8.67;;;5.43;;
39094;SDS011;24840;47.508;19.376;2022-12-11T01:17:41;8.67;;;5.67;;
39094;SDS011;24840;47.508;19.376;2022-12-11T01:20:07;7.00;;;5.20;;
39094;SDS011;24840;47.508;19.376;2022-12-11T01:22:33;6.63;;;4.67;;
39094;SDS011;24840;47.508;19.376;2022-12-11T01:24:59;9.23;;;5.57;;
39094;SDS011;24840;47.508;19.376;2022-12-11T01:27:24;7.53;;;5.20;;
39094;SDS011;24840;47.508;19.376;2022-12-11T01:29:50;7.37;;;5.73;;
39094;SDS011;24840;47.508;19.376;2022-12-11T01:32:16;6.27;;;4.80;;
39094;SDS011;24840;47.508;19.376;2022-12-11T01:34:41;7.10;;;5.17;;
39094;SDS011;24840;47.508;19.376;2022-12-11T01:37:07;7.50;;;5.23;;
39094;SDS011;24840;47.508;19.376;2022-12-11T01:39:33;8.33;;;5.13;;
39094;SDS011;24840;47.508;19.376;2022-12-11T01:42:02;8.43;;;4.80;;
39094;SDS011;24840;47.508;19.376;2022-12-11T01:46:55;7.70;;;4.83;;
39094;SDS011;24840;47.508;19.376;2022-12-11T01:49:22;6.97;;;4.50;;
39094;SDS011;24840;47.508;19.376;2022-12-11T01:51:52;7.87;;;4.43;;
39094;SDS011;24840;47.508;19.376;2022-12-11T01:54:19;4.77;;;4.20;;
39094;SDS011;24840;47.508;19.376;2022-12-11T01:56:48;6.80;;;4.37;;
39094;SDS011;24840;47.508;19.376;2022-12-11T01:59:17;6.37;;;4.20;;
39094;SDS011;24840;47.508;19.376;2022-12-11T02:01:46;6.27;;;4.07;;
39094;SDS011;24840;47.508;19.376;2022-12-11T02:04:15;5.40;;;3.63;;
39094;SDS011;24840;47.508;19.376;2022-12-11T02:06:44;4.47;;;3.97;;
39094;SDS011;24840;47.508;19.376;2022-12-11T02:09:13;5.60;;;3.40;;
39094;SDS011;24840;47.508;19.376;2022-12-11T02:12:01;4.70;;;3.53;;
39094;SDS011;24840;47.508;19.376;2022-12-11T02:20:27;6.63;;;4.13;;
39094;SDS011;24840;47.508;19.376;2022-12-11T02:28:37;5.20;;;3.70;;
39094;SDS011;24840;47.508;19.376;2022-12-11T02:34:00;5.63;;;4.40;;
39094;SDS011;24840;47.508;19.376;2022-12-11T02:36:31;6.30;;;4.47;;
39094;SDS011;24840;47.508;19.376;2022-12-11T02:39:02;6.65;;;4.72;;
39094;SDS011;24840;47.508;19.376;2022-12-11T02:41:33;6.30;;;4.43;;
39094;SDS011;24840;47.508;19.376;2022-12-11T02:43:59;5.80;;;4.70;;
39094;SDS011;24840;47.508;19.376;2022-12-11T02:46:27;8.43;;;6.83;;
39094;SDS011;24840;47.508;19.376;2022-12-11T02:48:54;7.17;;;5.50;;
39094;SDS011;24840;47.508;19.376;2022-12-11T02:51:23;8.03;;;5.70;;
39094;SDS011;24840;47.508;19.376;2022-12-11T02:53:53;7.93;;;5.90;;
39094;SDS011;24840;47.508;19.376;2022-12-11T02:56:23;7.13;;;4.90;;
39094;SDS011;24840;47.508;19.376;2022-12-11T02:58:56;6.32;;;4.43;;
39094;SDS011;24840;47.508;19.376;2022-12-11T03:01:35;6.90;;;5.30;;
39094;SDS011;24840;47.508;19.376;2022-12-11T03:04:01;6.33;;;5.10;;
39094;SDS011;24840;47.508;19.376;2022-12-11T03:06:29;6.23;;;4.47;;
39094;SDS011;24840;47.508;19.376;2022-12-11T03:08:58;7.60;;;5.18;;
39094;SDS011;24840;47.508;19.376;2022-12-11T03:11:24;4.53;;;3.60;;
39094;SDS011;24840;47.508;19.376;2022-12-11T03:13:50;6.50;;;4.07;;
39094;SDS011;24840;47.508;19.376;2022-12-11T03:16:20;6.33;;;3.97;;
39094;SDS011;24840;47.508;19.376;2022-12-11T03:21:52;5.90;;;3.27;;
39094;SDS011;24840;47.508;19.376;2022-12-11T03:24:45;6.73;;;3.60;;
39094;SDS011;24840;47.508;19.376;2022-12-11T03:27:38;5.10;;;3.40;;
39094;SDS011;24840;47.508;19.376;2022-12-11T03:30:13;4.27;;;3.23;;
39094;SDS011;24840;47.508;19.376;2022-12-11T03:32:52;6.47;;;3.30;;
39094;SDS011;24840;47.508;19.376;2022-12-11T03:35:29;5.67;;;3.67;;
39094;SDS011;24840;47.508;19.376;2022-12-11T03:38:00;6.88;;;3.88;;
39094;SDS011;24840;47.508;19.376;2022-12-11T03:40:32;4.17;;;2.80;;
39094;SDS011;24840;47.508;19.376;2022-12-11T03:43:00;4.97;;;3.23;;
39094;SDS011;24840;47.508;19.376;2022-12-11T03:45:28;7.10;;;3.03;;
39094;SDS011;24840;47.508;19.376;2022-12-11T03:47:55;4.17;;;2.73;;
39094;SDS011;24840;47.508;19.376;2022-12-11T03:50:24;5.50;;;3.13;;
39094;SDS011;24840;47.508;19.376;2022-12-11T03:52:52;4.70;;;2.97;;
39094;SDS011;24840;47.508;19.376;2022-12-11T03:55:20;5.33;;;3.10;;
39094;SDS011;24840;47.508;19.376;2022-12-11T03:57:47;6.00;;;2.87;;
39094;SDS011;24840;47.508;19.376;2022-12-11T04:00:14;5.90;;;3.07;;
39094;SDS011;24840;47.508;19.376;2022-12-11T04:02:42;4.37;;;2.50;;
39094;SDS011;24840;47.508;19.376;2022-12-11T04:05:08;5.97;;;3.07;;
39094;SDS011;24840;47.508;19.376;2022-12-11T04:07:35;5.20;;;2.97;;
39094;SDS011;24840;47.508;19.376;2022-12-11T04:10:02;6.87;;;3.70;;
39094;SDS011;24840;47.508;19.376;2022-12-11T04:12:29;7.10;;;2.87;;
39094;SDS011;24840;47.508;19.376;2022-12-11T04:14:55;5.43;;;2.87;;
39094;SDS011;24840;47.508;19.376;2022-12-11T04:17:29;4.63;;;2.90;;
39094;SDS011;24840;47.508;19.376;2022-12-11T04:20:15;4.00;;;2.10;;
39094;SDS011;24840;47.508;19.376;2022-12-11T04:23:02;2.77;;;1.93;;
39094;SDS011;24840;47.508;19.376;2022-12-11T04:25:54;2.53;;;1.73;;
39094;SDS011;24840;47.508;19.376;2022-12-11T04:28:32;2.23;;;1.67;;
39094;SDS011;24840;47.508;19.376;2022-12-11T04:30:57;2.83;;;1.77;;
39094;SDS011;24840;47.508;19.376;2022-12-11T04:33:23;2.07;;;1.40;;
39094;SDS011;24840;47.508;19.376;2022-12-11T04:35:49;3.73;;;1.30;;
39094;SDS011;24840;47.508;19.376;2022-12-11T04:38:15;2.63;;;1.63;;
39094;SDS011;24840;47.508;19.376;2022-12-11T04:40:40;2.30;;;1.67;;
39094;SDS011;24840;47.508;19.376;2022-12-11T04:43:06;1.90;;;1.37;;
39094;SDS011;24840;47.508;19.376;2022-12-11T04:45:32;4.90;;;1.10;;
39094;SDS011;24840;47.508;19.376;2022-12-11T04:47:58;1.97;;;1.40;;
39094;SDS011;24840;47.508;19.376;2022-12-11T04:50:24;1.70;;;1.10;;
39094;SDS011;24840;47.508;19.376;2022-12-11T04:52:52;2.47;;;1.37;;
39094;SDS011;24840;47.508;19.376;2022-12-11T04:55:19;2.23;;;1.50;;
39094;SDS011;24840;47.508;19.376;2022-12-11T04:57:45;2.43;;;1.30;;
39094;SDS011;24840;47.508;19.376;2022-12-11T05:00:11;2.43;;;1.60;;
39094;SDS011;24840;47.508;19.376;2022-12-11T05:02:38;2.90;;;1.70;;
39094;SDS011;24840;47.508;19.376;2022-12-11T05:05:05;2.13;;;1.53;;
39094;SDS011;24840;47.508;19.376;2022-12-11T05:07:36;2.60;;;1.53;;
39094;SDS011;24840;47.508;19.376;2022-12-11T05:10:03;3.47;;;1.47;;
39094;SDS011;24840;47.508;19.376;2022-12-11T05:12:30;2.20;;;1.40;;
39094;SDS011;24840;47.508;19.376;2022-12-11T05:14:56;2.63;;;1.90;;
39094;SDS011;24840;47.508;19.376;2022-12-11T05:17:22;2.60;;;1.60;;
39094;SDS011;24840;47.508;19.376;2022-12-11T05:19:48;1.70;;;1.20;;
39094;SDS011;24840;47.508;19.376;2022-12-11T05:22:15;2.93;;;1.50;;
39094;SDS011;24840;47.508;19.376;2022-12-11T05:24:41;2.33;;;1.33;;
39094;SDS011;24840;47.508;19.376;2022-12-11T05:27:09;2.87;;;1.70;;
39094;SDS011;24840;47.508;19.376;2022-12-11T05:29:35;1.93;;;1.40;;
39094;SDS011;24840;47.508;19.376;2022-12-11T05:32:01;1.77;;;0.90;;
39094;SDS011;24840;47.508;19.376;2022-12-11T05:34:28;2.20;;;1.20;;
39094;SDS011;24840;47.508;19.376;2022-12-11T05:36:53;1.63;;;0.83;;
39094;SDS011;24840;47.508;19.376;2022-12-11T05:39:19;2.27;;;1.30;;
39094;SDS011;24840;47.508;19.376;2022-12-11T05:41:46;2.07;;;1.23;;
39094;SDS011;24840;47.508;19.376;2022-12-11T05:44:12;2.27;;;1.50;;
39094;SDS011;24840;47.508;19.376;2022-12-11T05:46:38;1.97;;;1.30;;
39094;SDS011;24840;47.508;19.376;2022-12-11T05:49:04;1.90;;;1.33;;
39094;SDS011;24840;47.508;19.376;2022-12-11T05:51:30;1.97;;;1.17;;
39094;SDS011;24840;47.508;19.376;2022-12-11T05:53:58;2.53;;;0.90;;
39094;SDS011;24840;47.508;19.376;2022-12-11T05:56:25;3.07;;;1.33;;
39094;SDS011;24840;47.508;19.376;2022-12-11T05:58:53;3.60;;;1.73;;
39094;SDS011;24840;47.508;19.376;2022-12-11T06:01:24;3.23;;;1.83;;
39094;SDS011;24840;47.508;19.376;2022-12-11T06:03:52;3.70;;;1.38;;
39094;SDS011;24840;47.508;19.376;2022-12-11T06:06:18;4.33;;;1.77;;
39094;SDS011;24840;47.508;19.376;2022-12-11T06:08:44;2.70;;;1.70;;
39094;SDS011;24840;47.508;19.376;2022-12-11T06:11:13;1.20;;;1.00;;
39094;SDS011;24840;47.508;19.376;2022-12-11T06:13:39;2.57;;;1.27;;
39094;SDS011;24840;47.508;19.376;2022-12-11T06:16:05;4.27;;;1.30;;
39094;SDS011;24840;47.508;19.376;2022-12-11T06:18:36;4.83;;;1.93;;
39094;SDS011;24840;47.508;19.376;2022-12-11T06:21:36;6.57;;;1.90;;
39094;SDS011;24840;47.508;19.376;2022-12-11T06:23:58;4.30;;;1.87;;
39094;SDS011;24840;47.508;19.376;2022-12-11T06:26:25;3.67;;;1.60;;
39094;SDS011;24840;47.508;19.376;2022-12-11T06:28:51;4.43;;;1.60;;
39094;SDS011;24840;47.508;19.376;2022-12-11T06:31:17;2.67;;;1.37;;
39094;SDS011;24840;47.508;19.376;2022-12-11T06:33:43;2.10;;;1.27;;
39094;SDS011;24840;47.508;19.376;2022-12-11T06:36:11;3.07;;;1.90;;
39094;SDS011;24840;47.508;19.376;2022-12-11T06:38:38;2.63;;;1.93;;
39094;SDS011;24840;47.508;19.376;2022-12-11T06:41:05;2.83;;;1.70;;
39094;SDS011;24840;47.508;19.376;2022-12-11T06:43:32;2.90;;;1.83;;
39094;SDS011;24840;47.508;19.376;2022-12-11T06:45:58;11.13;;;2.97;;
39094;SDS011;24840;47.508;19.376;2022-12-11T06:48:27;5.10;;;2.40;;
39094;SDS011;24840;47.508;19.376;2022-12-11T06:50:53;2.53;;;1.47;;
39094;SDS011;24840;47.508;19.376;2022-12-11T06:53:18;2.73;;;1.73;;
39094;SDS011;24840;47.508;19.376;2022-12-11T06:55:44;4.00;;;2.30;;
39094;SDS011;24840;47.508;19.376;2022-12-11T06:58:10;2.93;;;2.00;;
39094;SDS011;24840;47.508;19.376;2022-12-11T07:00:35;3.27;;;2.13;;
39094;SDS011;24840;47.508;19.376;2022-12-11T07:03:02;3.57;;;2.10;;
39094;SDS011;24840;47.508;19.376;2022-12-11T07:05:28;4.33;;;2.40;;
39094;SDS011;24840;47.508;19.376;2022-12-11T07:07:54;3.90;;;1.90;;
39094;SDS011;24840;47.508;19.376;2022-12-11T07:10:20;5.97;;;2.47;;
39094;SDS011;24840;47.508;19.376;2022-12-11T07:12:47;4.60;;;2.27;;
39094;SDS011;24840;47.508;19.376;2022-12-11T07:15:12;4.63;;;2.63;;
39094;SDS011;24840;47.508;19.376;2022-12-11T07:17:38;2.63;;;2.00;;
39094;SDS011;24840;47.508;19.376;2022-12-11T07:20:05;2.93;;;2.37;;
39094;SDS011;24840;47.508;19.376;2022-12-11T07:22:31;2.77;;;2.23;;
39094;SDS011;24840;47.508;19.376;2022-12-11T07:24:56;3.17;;;2.70;;
39094;SDS011;24840;47.508;19.376;2022-12-11T07:27:23;3.80;;;2.20;;
39094;SDS011;24840;47.508;19.376;2022-12-11T07:29:49;6.20;;;3.73;;
39094;SDS011;24840;47.508;19.376;2022-12-11T07:32:15;6.40;;;3.17;;
39094;SDS011;24840;47.508;19.376;2022-12-11T07:34:41;4.07;;;2.70;;
39094;SDS011;24840;47.508;19.376;2022-12-11T07:37:07;3.50;;;2.50;;
39094;SDS011;24840;47.508;19.376;2022-12-11T07:39:34;5.97;;;3.50;;
39094;SDS011;24840;47.508;19.376;2022-12-11T07:41:59;5.33;;;3.23;;
39094;SDS011;24840;47.508;19.376;2022-12-11T07:44:25;5.33;;;3.90;;
39094;SDS011;24840;47.508;19.376;2022-12-11T07:46:51;5.33;;;3.73;;
39094;SDS011;24840;47.508;19.376;2022-12-11T07:49:16;8.30;;;4.10;;
39094;SDS011;24840;47.508;19.376;2022-12-11T07:51:42;5.77;;;3.80;;
39094;SDS011;24840;47.508;19.376;2022-12-11T07:54:11;5.57;;;3.80;;
39094;SDS011;24840;47.508;19.376;2022-12-11T07:56:41;6.60;;;3.38;;
39094;SDS011;24840;47.508;19.376;2022-12-11T07:59:08;6.67;;;4.37;;
39094;SDS011;24840;47.508;19.376;2022-12-11T08:01:36;5.20;;;3.47;;
39094;SDS011;24840;47.508;19.376;2022-12-11T08:04:03;6.40;;;4.07;;
39094;SDS011;24840;47.508;19.376;2022-12-11T08:06:32;6.40;;;4.30;;
39094;SDS011;24840;47.508;19.376;2022-12-11T08:09:00;6.33;;;4.20;;
39094;SDS011;24840;47.508;19.376;2022-12-11T08:11:28;7.47;;;5.10;;
39094;SDS011;24840;47.508;19.376;2022-12-11T08:13:54;10.47;;;6.00;;
39094;SDS011;24840;47.508;19.376;2022-12-11T08:16:19;8.33;;;4.57;;
39094;SDS011;24840;47.508;19.376;2022-12-11T08:18:46;12.17;;;8.10;;
39094;SDS011;24840;47.508;19.376;2022-12-11T08:21:14;20.87;;;14.43;;
39094;SDS011;24840;47.508;19.376;2022-12-11T08:23:50;17.63;;;10.33;;
39094;SDS011;24840;47.508;19.376;2022-12-11T08:26:18;7.67;;;5.57;;
39094;SDS011;24840;47.508;19.376;2022-12-11T08:28:48;6.60;;;4.20;;
39094;SDS011;24840;47.508;19.376;2022-12-11T08:31:14;7.90;;;5.00;;
39094;SDS011;24840;47.508;19.376;2022-12-11T08:33:41;7.37;;;4.97;;
39094;SDS011;24840;47.508;19.376;2022-12-11T08:36:07;7.67;;;4.43;;
39094;SDS011;24840;47.508;19.376;2022-12-11T08:38:35;7.20;;;4.40;;
39094;SDS011;24840;47.508;19.376;2022-12-11T08:41:11;8.50;;;5.73;;
39094;SDS011;24840;47.508;19.376;2022-12-11T08:43:38;6.50;;;4.57;;
39094;SDS011;24840;47.508;19.376;2022-12-11T08:46:05;6.20;;;3.97;;
39094;SDS011;24840;47.508;19.376;2022-12-11T08:48:32;5.10;;;4.17;;
39094;SDS011;24840;47.508;19.376;2022-12-11T08:50:59;6.47;;;4.97;;
39094;SDS011;24840;47.508;19.376;2022-12-11T08:53:27;6.93;;;4.37;;
39094;SDS011;24840;47.508;19.376;2022-12-11T08:55:53;6.63;;;4.67;;
39094;SDS011;24840;47.508;19.376;2022-12-11T08:58:24;7.33;;;4.73;;
39094;SDS011;24840;47.508;19.376;2022-12-11T09:00:50;7.67;;;5.63;;
39094;SDS011;24840;47.508;19.376;2022-12-11T09:03:15;10.50;;;6.83;;
39094;SDS011;24840;47.508;19.376;2022-12-11T09:05:41;7.47;;;5.33;;
39094;SDS011;24840;47.508;19.376;2022-12-11T09:08:07;8.87;;;5.13;;
39094;SDS011;24840;47.508;19.376;2022-12-11T09:10:33;7.67;;;5.63;;
39094;SDS011;24840;47.508;19.376;2022-12-11T09:12:58;9.43;;;5.23;;
39094;SDS011;24840;47.508;19.376;2022-12-11T09:15:24;8.77;;;5.80;;
39094;SDS011;24840;47.508;19.376;2022-12-11T09:17:50;8.17;;;5.97;;
39094;SDS011;24840;47.508;19.376;2022-12-11T09:20:15;9.87;;;6.77;;
39094;SDS011;24840;47.508;19.376;2022-12-11T09:22:41;6.83;;;4.50;;
39094;SDS011;24840;47.508;19.376;2022-12-11T09:25:07;7.30;;;5.00;;
39094;SDS011;24840;47.508;19.376;2022-12-11T09:27:33;6.80;;;4.80;;
39094;SDS011;24840;47.508;19.376;2022-12-11T09:29:59;6.67;;;4.67;;
39094;SDS011;24840;47.508;19.376;2022-12-11T09:32:25;8.33;;;4.97;;
39094;SDS011;24840;47.508;19.376;2022-12-11T09:34:51;6.53;;;4.57;;
39094;SDS011;24840;47.508;19.376;2022-12-11T09:37:16;7.50;;;4.77;;
39094;SDS011;24840;47.508;19.376;2022-12-11T09:39:42;6.37;;;4.33;;
39094;SDS011;24840;47.508;19.376;2022-12-11T09:42:18;5.93;;;4.60;;
39094;SDS011;24840;47.508;19.376;2022-12-11T09:44:53;10.63;;;4.53;;
39094;SDS011;24840;47.508;19.376;2022-12-11T09:52:39;9.83;;;4.20;;
39094;SDS011;24840;47.508;19.376;2022-12-11T09:55:53;6.67;;;4.20;;
39094;SDS011;24840;47.508;19.376;2022-12-11T09:58:21;6.13;;;4.03;;
39094;SDS011;24840;47.508;19.376;2022-12-11T10:06:24;5.20;;;3.90;;
39094;SDS011;24840;47.508;19.376;2022-12-11T10:11:49;6.30;;;3.53;;
39094;SDS011;24840;47.508;19.376;2022-12-11T10:14:27;6.27;;;4.17;;
39094;SDS011;24840;47.508;19.376;2022-12-11T10:17:03;6.20;;;4.07;;
39094;SDS011;24840;47.508;19.376;2022-12-11T10:19:39;6.20;;;4.07;;
39094;SDS011;24840;47.508;19.376;2022-12-11T10:22:11;5.37;;;3.97;;
39094;SDS011;24840;47.508;19.376;2022-12-11T10:27:23;6.20;;;4.10;;
39094;SDS011;24840;47.508;19.376;2022-12-11T10:30:06;9.00;;;4.10;;
39094;SDS011;24840;47.508;19.376;2022-12-11T10:32:42;4.90;;;3.30;;
39094;SDS011;24840;47.508;19.376;2022-12-11T10:35:48;5.80;;;4.10;;
39094;SDS011;24840;47.508;19.376;2022-12-11T10:38:30;5.60;;;3.80;;
39094;SDS011;24840;47.508;19.376;2022-12-11T10:41:00;4.27;;;2.90;;
39094;SDS011;24840;47.508;19.376;2022-12-11T10:43:35;6.30;;;3.97;;
39094;SDS011;24840;47.508;19.376;2022-12-11T10:46:03;4.23;;;3.23;;
39094;SDS011;24840;47.508;19.376;2022-12-11T10:48:30;4.87;;;3.53;;
39094;SDS011;24840;47.508;19.376;2022-12-11T10:51:03;5.83;;;3.67;;
39094;SDS011;24840;47.508;19.376;2022-12-11T10:53:31;4.83;;;3.37;;
39094;SDS011;24840;47.508;19.376;2022-12-11T10:55:58;4.00;;;3.17;;
39094;SDS011;24840;47.508;19.376;2022-12-11T10:58:25;4.13;;;2.93;;
39094;SDS011;24840;47.508;19.376;2022-12-11T11:06:19;7.73;;;4.67;;
39094;SDS011;24840;47.508;19.376;2022-12-11T11:08:47;7.53;;;3.80;;
39094;SDS011;24840;47.508;19.376;2022-12-11T11:11:22;6.73;;;3.30;;
39094;SDS011;24840;47.508;19.376;2022-12-11T11:13:49;4.50;;;3.03;;
39094;SDS011;24840;47.508;19.376;2022-12-11T11:16:17;6.20;;;3.23;;
39094;SDS011;24840;47.508;19.376;2022-12-11T11:18:52;4.63;;;3.30;;
39094;SDS011;24840;47.508;19.376;2022-12-11T11:21:21;5.90;;;3.40;;
39094;SDS011;24840;47.508;19.376;2022-12-11T11:23:48;4.40;;;3.53;;
39094;SDS011;24840;47.508;19.376;2022-12-11T11:26:15;7.27;;;3.50;;
39094;SDS011;24840;47.508;19.376;2022-12-11T11:28:46;5.33;;;3.23;;
39094;SDS011;24840;47.508;19.376;2022-12-11T11:31:30;4.93;;;3.43;;
39094;SDS011;24840;47.508;19.376;2022-12-11T11:34:05;7.60;;;3.20;;
39094;SDS011;24840;47.508;19.376;2022-12-11T11:45:13;4.63;;;3.13;;
39094;SDS011;24840;47.508;19.376;2022-12-11T11:50:46;4.32;;;3.38;;
39094;SDS011;24840;47.508;19.376;2022-12-11T11:53:26;4.33;;;3.13;;
39094;SDS011;24840;47.508;19.376;2022-12-11T12:01:49;7.40;;;3.83;;
39094;SDS011;24840;47.508;19.376;2022-12-11T12:04:18;4.93;;;3.27;;
39094;SDS011;24840;47.508;19.376;2022-12-11T12:07:04;6.57;;;4.23;;
39094;SDS011;24840;47.508;19.376;2022-12-11T12:14:45;12.63;;;7.77;;
39094;SDS011;24840;47.508;19.376;2022-12-11T12:22:52;8.03;;;4.27;;
39094;SDS011;24840;47.508;19.376;2022-12-11T12:25:38;6.07;;;3.63;;
39094;SDS011;24840;47.508;19.376;2022-12-11T12:33:57;4.70;;;2.90;;
39094;SDS011;24840;47.508;19.376;2022-12-11T12:36:32;7.20;;;3.20;;
39094;SDS011;24840;47.508;19.376;2022-12-11T12:42:13;4.23;;;2.90;;
39094;SDS011;24840;47.508;19.376;2022-12-11T12:47:52;4.97;;;3.23;;
39094;SDS011;24840;47.508;19.376;2022-12-11T12:50:19;4.00;;;2.70;;
39094;SDS011;24840;47.508;19.376;2022-12-11T12:52:47;4.90;;;3.20;;
39094;SDS011;24840;47.508;19.376;2022-12-11T12:55:20;9.70;;;4.03;;
39094;SDS011;24840;47.508;19.376;2022-12-11T12:57:52;7.30;;;4.20;;
39094;SDS011;24840;47.508;19.376;2022-12-11T13:00:25;7.40;;;4.97;;
39094;SDS011;24840;47.508;19.376;2022-12-11T13:03:12;5.43;;;4.20;;
39094;SDS011;24840;47.508;19.376;2022-12-11T13:06:01;6.40;;;4.50;;
39094;SDS011;24840;47.508;19.376;2022-12-11T13:08:38;7.27;;;4.43;;
39094;SDS011;24840;47.508;19.376;2022-12-11T13:11:07;9.37;;;4.33;;
39094;SDS011;24840;47.508;19.376;2022-12-11T13:13:39;5.13;;;4.07;;
39094;SDS011;24840;47.508;19.376;2022-12-11T13:16:06;8.30;;;6.03;;
39094;SDS011;24840;47.508;19.376;2022-12-11T13:18:41;4.17;;;3.00;;
39094;SDS011;24840;47.508;19.376;2022-12-11T13:26:49;5.55;;;4.50;;
39094;SDS011;24840;47.508;19.376;2022-12-11T13:29:37;5.37;;;3.50;;
39094;SDS011;24840;47.508;19.376;2022-12-11T13:34:38;8.27;;;4.20;;
39094;SDS011;24840;47.508;19.376;2022-12-11T13:37:16;6.77;;;4.47;;
39094;SDS011;24840;47.508;19.376;2022-12-11T13:39:59;10.60;;;4.95;;
39094;SDS011;24840;47.508;19.376;2022-12-11T13:42:33;5.90;;;4.30;;
39094;SDS011;24840;47.508;19.376;2022-12-11T13:45:04;6.10;;;4.10;;
39094;SDS011;24840;47.508;19.376;2022-12-11T13:47:31;5.33;;;4.23;;
39094;SDS011;24840;47.508;19.376;2022-12-11T13:50:24;10.17;;;6.10;;
39094;SDS011;24840;47.508;19.376;2022-12-11T13:52:59;10.33;;;5.80;;
39094;SDS011;24840;47.508;19.376;2022-12-11T13:57:54;10.33;;;6.83;;
39094;SDS011;24840;47.508;19.376;2022-12-11T14:00:22;11.97;;;7.83;;
39094;SDS011;24840;47.508;19.376;2022-12-11T14:02:52;9.20;;;6.43;;
39094;SDS011;24840;47.508;19.376;2022-12-11T14:05:20;10.23;;;7.80;;
39094;SDS011;24840;47.508;19.376;2022-12-11T14:07:48;8.50;;;6.03;;
39094;SDS011;24840;47.508;19.376;2022-12-11T14:10:22;6.53;;;3.85;;
39094;SDS011;24840;47.508;19.376;2022-12-11T14:15:25;6.37;;;4.53;;
39094;SDS011;24840;47.508;19.376;2022-12-11T14:17:52;21.27;;;14.13;;
39094;SDS011;24840;47.508;19.376;2022-12-11T14:20:20;10.83;;;6.83;;
39094;SDS011;24840;47.508;19.376;2022-12-11T14:22:48;6.10;;;4.97;;
39094;SDS011;24840;47.508;19.376;2022-12-11T14:25:24;6.33;;;4.37;;
39094;SDS011;24840;47.508;19.376;2022-12-11T14:27:52;8.33;;;5.13;;
39094;SDS011;24840;47.508;19.376;2022-12-11T14:30:30;6.63;;;4.10;;
39094;SDS011;24840;47.508;19.376;2022-12-11T14:33:01;7.13;;;4.07;;
39094;SDS011;24840;47.508;19.376;2022-12-11T14:38:01;8.53;;;4.97;;
39094;SDS011;24840;47.508;19.376;2022-12-11T14:40:37;10.73;;;4.67;;
39094;SDS011;24840;47.508;19.376;2022-12-11T14:43:10;6.97;;;5.00;;
39094;SDS011;24840;47.508;19.376;2022-12-11T14:45:45;5.63;;;5.03;;
39094;SDS011;24840;47.508;19.376;2022-12-11T14:48:18;10.23;;;6.07;;
39094;SDS011;24840;47.508;19.376;2022-12-11T14:50:51;8.90;;;5.07;;
39094;SDS011;24840;47.508;19.376;2022-12-11T14:53:20;8.97;;;5.83;;
39094;SDS011;24840;47.508;19.376;2022-12-11T14:55:55;9.73;;;6.47;;
39094;SDS011;24840;47.508;19.376;2022-12-11T14:58:25;11.27;;;6.67;;
39094;SDS011;24840;47.508;19.376;2022-12-11T15:01:02;10.23;;;6.13;;
39094;SDS011;24840;47.508;19.376;2022-12-11T15:03:35;14.23;;;5.97;;
39094;SDS011;24840;47.508;19.376;2022-12-11T15:06:20;12.90;;;5.40;;
39094;SDS011;24840;47.508;19.376;2022-12-11T15:08:53;12.57;;;6.83;;
39094;SDS011;24840;47.508;19.376;2022-12-11T15:11:19;7.57;;;5.40;;
39094;SDS011;24840;47.508;19.376;2022-12-11T15:13:54;7.67;;;5.53;;
39094;SDS011;24840;47.508;19.376;2022-12-11T15:19:32;9.27;;;5.17;;
39094;SDS011;24840;47.508;19.376;2022-12-11T15:22:01;9.90;;;5.77;;
39094;SDS011;24840;47.508;19.376;2022-12-11T15:24:36;10.35;;;6.45;;
39094;SDS011;24840;47.508;19.376;2022-12-11T15:27:53;9.63;;;5.77;;
39094;SDS011;24840;47.508;19.376;2022-12-11T15:33:00;9.87;;;6.17;;
39094;SDS011;24840;47.508;19.376;2022-12-11T15:35:50;9.97;;;6.33;;
39094;SDS011;24840;47.508;19.376;2022-12-11T15:38:37;8.50;;;5.80;;
39094;SDS011;24840;47.508;19.376;2022-12-11T15:41:10;10.67;;;6.93;;
39094;SDS011;24840;47.508;19.376;2022-12-11T15:43:39;9.03;;;6.47;;
39094;SDS011;24840;47.508;19.376;2022-12-11T15:46:05;9.77;;;5.63;;
39094;SDS011;24840;47.508;19.376;2022-12-11T15:48:31;11.20;;;6.80;;
39094;SDS011;24840;47.508;19.376;2022-12-11T15:50:57;8.57;;;5.67;;
39094;SDS011;24840;47.508;19.376;2022-12-11T15:53:23;11.67;;;7.17;;
39094;SDS011;24840;47.508;19.376;2022-12-11T15:55:49;9.20;;;7.97;;
39094;SDS011;24840;47.508;19.376;2022-12-11T15:58:17;10.60;;;6.77;;
39094;SDS011;24840;47.508;19.376;2022-12-11T16:07:44;13.50;;;8.33;;
39094;SDS011;24840;47.508;19.376;2022-12-11T16:10:20;12.43;;;9.50;;
39094;SDS011;24840;47.508;19.376;2022-12-11T16:12:52;10.02;;;6.68;;
39094;SDS011;24840;47.508;19.376;2022-12-11T16:15:25;11.57;;;7.63;;
39094;SDS011;24840;47.508;19.376;2022-12-11T16:18:08;10.73;;;6.27;;
39094;SDS011;24840;47.508;19.376;2022-12-11T16:20:52;12.10;;;7.17;;
39094;SDS011;24840;47.508;19.376;2022-12-11T16:23:21;13.57;;;8.03;;
39094;SDS011;24840;47.508;19.376;2022-12-11T16:25:48;11.47;;;7.97;;
39094;SDS011;24840;47.508;19.376;2022-12-11T16:28:15;12.47;;;8.13;;
39094;SDS011;24840;47.508;19.376;2022-12-11T16:30:45;13.20;;;8.00;;
39094;SDS011;24840;47.508;19.376;2022-12-11T16:33:19;10.80;;;7.40;;
39094;SDS011;24840;47.508;19.376;2022-12-11T16:35:45;10.90;;;6.90;;
39094;SDS011;24840;47.508;19.376;2022-12-11T16:38:11;10.40;;;7.43;;
39094;SDS011;24840;47.508;19.376;2022-12-11T16:40:37;13.97;;;8.10;;
39094;SDS011;24840;47.508;19.376;2022-12-11T16:46:27;32.53;;;18.40;;